createdAt,value
2017-11-09T00:00:13.107Z,55.20
2017-11-09T00:02:46.298Z,56.20
2017-11-09T00:05:19.576Z,56.80
2017-11-09T00:07:47.170Z,56.47
2017-11-09T00:10:14.730Z,57.83
2017-11-09T00:12:42.273Z,63.00
2017-11-09T00:15:09.933Z,59.07
2017-11-09T00:17:40.325Z,58.20
2017-11-09T00:20:07.914Z,55.93
2017-11-09T00:22:35.476Z,59.97
2017-11-09T00:25:03.049Z,58.97
2017-11-09T00:27:30.622Z,58.13
2017-11-09T00:29:58.189Z,57.93
2017-11-09T00:32:25.781Z,59.60
2017-11-09T00:34:53.339Z,57.28
2017-11-09T00:37:21.675Z,56.00
2017-11-09T00:39:50.012Z,57.60
2017-11-09T00:42:17.609Z,62.37
2017-11-09T00:44:45.153Z,57.45
2017-11-09T00:47:12.693Z,59.60
2017-11-09T00:49:40.271Z,58.27
2017-11-09T00:52:07.825Z,53.20
2017-11-09T00:54:35.399Z,54.77
2017-11-09T00:57:02.967Z,57.60
2017-11-09T00:59:30.578Z,57.80
2017-11-09T01:01:58.140Z,57.17
2017-11-09T01:04:25.714Z,56.25
2017-11-09T01:06:53.296Z,55.85
2017-11-09T01:09:20.853Z,59.20
2017-11-09T01:11:48.403Z,56.60
2017-11-09T01:14:15.959Z,61.70
2017-11-09T01:16:43.503Z,58.60
2017-11-09T01:19:11.064Z,58.90
2017-11-09T01:21:38.636Z,56.43
2017-11-09T01:24:06.195Z,58.87
2017-11-09T01:26:33.773Z,60.70
2017-11-09T01:29:01.335Z,61.20
2017-11-09T01:31:28.909Z,62.70
2017-11-09T01:33:56.491Z,59.60
2017-11-09T01:36:24.055Z,55.80
2017-11-09T01:38:52.405Z,59.77
2017-11-09T01:41:19.967Z,59.40
2017-11-09T01:43:47.534Z,56.67
2017-11-09T01:46:15.121Z,57.30
2017-11-09T01:48:42.683Z,61.80
2017-11-09T01:51:10.504Z,59.97
2017-11-09T01:53:38.053Z,55.72
2017-11-09T01:56:05.608Z,58.33
2017-11-09T01:58:33.184Z,59.60
2017-11-09T02:01:02.278Z,58.97
2017-11-09T02:03:29.857Z,63.17
2017-11-09T02:05:58.188Z,60.67
2017-11-09T02:08:25.737Z,58.23
2017-11-09T02:10:53.321Z,57.80
2017-11-09T02:13:20.879Z,57.37
2017-11-09T02:15:48.456Z,56.40
2017-11-09T02:18:16.013Z,54.40
2017-11-09T02:20:43.565Z,54.58
2017-11-09T02:23:11.245Z,55.13
2017-11-09T02:25:38.809Z,57.15
2017-11-09T02:28:06.458Z,56.93
2017-11-09T02:30:33.998Z,57.93
2017-11-09T02:33:01.566Z,57.07
2017-11-09T02:35:29.139Z,57.63
2017-11-09T02:37:56.700Z,54.03
2017-11-09T02:40:24.269Z,53.43
2017-11-09T02:42:52.592Z,55.40
2017-11-09T02:45:20.190Z,53.13
2017-11-09T02:47:47.921Z,55.33
2017-11-09T02:50:15.469Z,56.60
2017-11-09T02:52:43.097Z,55.93
2017-11-09T02:55:11.401Z,54.70
2017-11-09T02:57:39.014Z,55.50
2017-11-09T03:00:06.561Z,54.37
2017-11-09T03:02:34.111Z,54.83
2017-11-09T03:05:01.688Z,54.45
2017-11-09T03:07:29.998Z,58.10
2017-11-09T03:09:57.564Z,53.33
2017-11-09T03:14:58.049Z,53.53
2017-11-09T03:17:25.695Z,56.83
2017-11-09T03:19:53.233Z,57.40
2017-11-09T03:22:20.815Z,54.13
2017-11-09T03:24:48.368Z,54.23
2017-11-09T03:27:15.967Z,54.87
2017-11-09T03:29:43.554Z,54.90
2017-11-09T03:32:11.875Z,57.47
2017-11-09T03:34:39.437Z,58.40
2017-11-09T03:37:06.977Z,59.30
2017-11-09T03:39:34.574Z,62.03
2017-11-09T03:42:02.122Z,61.23
2017-11-09T03:44:29.663Z,58.30
2017-11-09T03:46:57.225Z,58.07
2017-11-09T03:49:24.758Z,60.50
2017-11-09T03:51:52.352Z,58.63
2017-11-09T03:54:19.917Z,58.57
2017-11-09T03:56:47.475Z,58.60
2017-11-09T03:59:15.057Z,59.75
2017-11-09T04:01:42.623Z,63.35
2017-11-09T04:04:10.194Z,62.20
2017-11-09T04:06:38.524Z,63.83
2017-11-09T04:09:06.062Z,65.10
2017-11-09T04:11:33.635Z,65.87
2017-11-09T04:14:01.205Z,61.90
2017-11-09T04:16:28.792Z,66.00
2017-11-09T04:18:56.338Z,64.10
2017-11-09T04:21:23.892Z,63.37
2017-11-09T04:23:51.467Z,66.50
2017-11-09T04:26:19.136Z,67.57
2017-11-09T04:28:47.492Z,65.07
2017-11-09T04:31:15.052Z,68.47
2017-11-09T04:33:42.618Z,67.67
2017-11-09T04:36:10.201Z,73.55
2017-11-09T04:38:38.529Z,72.83
2017-11-09T04:41:06.119Z,68.90
2017-11-09T04:43:33.676Z,75.00
2017-11-09T04:46:01.246Z,69.30
2017-11-09T04:48:28.817Z,68.63
2017-11-09T04:50:57.146Z,70.78
2017-11-09T04:53:24.731Z,71.00
2017-11-09T04:55:53.056Z,71.53
2017-11-09T04:58:20.630Z,70.10
2017-11-09T05:00:48.212Z,71.05
2017-11-09T05:03:15.746Z,69.17
2017-11-09T05:05:43.343Z,69.72
2017-11-09T05:08:10.921Z,68.32
2017-11-09T05:10:38.487Z,71.60
2017-11-09T05:13:06.911Z,69.40
2017-11-09T05:15:34.464Z,71.80
2017-11-09T05:18:02.062Z,70.80
2017-11-09T05:20:29.616Z,69.80
2017-11-09T05:22:57.187Z,70.68
2017-11-09T05:25:24.766Z,69.50
2017-11-09T05:27:53.082Z,71.20
2017-11-09T05:30:20.696Z,70.40
2017-11-09T05:32:48.270Z,73.30
2017-11-09T05:35:16.587Z,73.70
2017-11-09T05:37:44.177Z,75.72
2017-11-09T05:40:11.739Z,71.27
2017-11-09T05:42:39.322Z,69.87
2017-11-09T05:45:07.652Z,73.70
2017-11-09T05:47:35.222Z,74.93
2017-11-09T05:50:02.799Z,79.93
2017-11-09T05:52:30.630Z,71.53
2017-11-09T05:54:58.202Z,71.97
2017-11-09T05:57:25.767Z,72.80
2017-11-09T05:59:53.328Z,74.10
2017-11-09T06:02:20.901Z,72.40
2017-11-09T06:04:48.477Z,75.00
2017-11-09T06:07:16.832Z,71.80
2017-11-09T06:09:44.391Z,71.87
2017-11-09T06:12:12.028Z,70.60
2017-11-09T06:14:39.787Z,72.53
2017-11-09T06:17:07.344Z,75.72
2017-11-09T06:19:34.917Z,70.10
2017-11-09T06:22:02.481Z,73.90
2017-11-09T06:24:30.035Z,72.90
2017-11-09T06:26:57.597Z,74.37
2017-11-09T06:29:25.165Z,72.27
2017-11-09T06:31:52.773Z,71.70
2017-11-09T06:34:20.369Z,69.50
2017-11-09T06:36:48.066Z,73.85
2017-11-09T06:39:15.621Z,74.20
2017-11-09T06:41:43.185Z,71.32
2017-11-09T06:44:10.903Z,75.10
2017-11-09T06:46:38.465Z,74.40
2017-11-09T06:49:06.013Z,72.37
2017-11-09T06:51:33.591Z,69.45
2017-11-09T06:54:01.164Z,72.15
2017-11-09T06:56:28.766Z,74.22
2017-11-09T06:58:57.105Z,70.50
2017-11-09T07:01:24.696Z,70.10
2017-11-09T07:03:53.075Z,75.00
2017-11-09T07:06:21.389Z,70.67
2017-11-09T07:08:49.021Z,72.93
2017-11-09T07:11:16.591Z,71.57
2017-11-09T07:13:44.151Z,72.17
2017-11-09T07:16:12.506Z,73.83
2017-11-09T07:18:40.828Z,67.67
2017-11-09T07:21:08.408Z,74.77
2017-11-09T07:23:35.949Z,70.50
2017-11-09T07:26:03.516Z,69.50
2017-11-09T07:28:31.114Z,72.13
2017-11-09T07:30:58.660Z,68.80
2017-11-09T07:33:26.252Z,72.62
2017-11-09T07:35:54.601Z,69.20
2017-11-09T07:38:22.169Z,66.77
2017-11-09T07:40:49.757Z,71.23
2017-11-09T07:43:17.319Z,73.62
2017-11-09T07:45:44.922Z,71.63
2017-11-09T07:48:12.480Z,70.17
2017-11-09T07:50:40.200Z,67.53
2017-11-09T07:53:07.759Z,71.78
2017-11-09T07:55:35.340Z,68.40
2017-11-09T07:58:02.895Z,69.57
2017-11-09T08:00:30.468Z,69.33
2017-11-09T08:02:58.031Z,67.77
2017-11-09T08:05:25.607Z,69.77
2017-11-09T08:07:53.159Z,70.40
2017-11-09T08:10:20.736Z,68.23
2017-11-09T08:12:48.285Z,64.55
2017-11-09T08:15:15.842Z,65.50
2017-11-09T08:17:43.410Z,66.30
2017-11-09T08:20:10.996Z,68.40
2017-11-09T08:22:39.343Z,71.63
2017-11-09T08:25:08.460Z,66.43
2017-11-09T08:27:39.208Z,67.20
2017-11-09T08:30:09.562Z,66.10
2017-11-09T08:32:38.267Z,66.43
2017-11-09T08:35:05.845Z,68.80
2017-11-09T08:37:33.405Z,66.93
2017-11-09T08:40:01.562Z,65.20
2017-11-09T08:42:29.144Z,66.03
2017-11-09T08:44:56.689Z,68.10
2017-11-09T08:47:24.278Z,65.50
2017-11-09T08:49:51.844Z,66.27
2017-11-09T08:52:20.167Z,67.07
2017-11-09T08:54:47.754Z,66.73
2017-11-09T08:57:15.297Z,67.40
2017-11-09T08:59:42.893Z,59.57
2017-11-09T09:02:10.462Z,62.10
2017-11-09T09:04:38.790Z,60.13
2017-11-09T09:07:06.449Z,58.50
2017-11-09T09:09:34.026Z,60.17
2017-11-09T09:12:01.672Z,57.30
2017-11-09T09:14:29.246Z,56.63
2017-11-09T09:16:56.890Z,59.23
2017-11-09T09:19:24.464Z,55.80
2017-11-09T09:22:09.872Z,60.37
2017-11-09T09:24:37.443Z,54.27
2017-11-09T09:30:27.501Z,57.63
2017-11-09T09:32:59.263Z,58.33
2017-11-09T09:35:32.941Z,55.60
2017-11-09T09:38:05.843Z,56.53
2017-11-09T09:40:35.238Z,61.80
2017-11-09T09:43:02.792Z,57.10
2017-11-09T09:45:30.350Z,56.43
2017-11-09T09:47:57.946Z,52.67
2017-11-09T09:50:25.509Z,56.83
2017-11-09T09:52:53.045Z,51.47
2017-11-09T09:55:20.603Z,52.70
2017-11-09T09:57:48.175Z,53.53
2017-11-09T10:00:15.743Z,50.23
2017-11-09T10:02:43.337Z,50.90
2017-11-09T10:05:11.763Z,53.97
2017-11-09T10:07:39.316Z,53.70
2017-11-09T10:10:06.886Z,55.87
2017-11-09T10:12:34.453Z,54.27
2017-11-09T10:15:02.055Z,54.90
2017-11-09T10:17:30.402Z,54.83
2017-11-09T10:19:57.941Z,53.60
2017-11-09T10:22:25.511Z,53.67
2017-11-09T10:24:53.064Z,51.37
2017-11-09T10:27:20.649Z,53.67
2017-11-09T10:29:48.211Z,54.60
2017-11-09T10:32:15.835Z,54.07
2017-11-09T10:34:43.387Z,55.33
2017-11-09T10:37:10.939Z,54.67
2017-11-09T10:39:38.497Z,56.13
2017-11-09T10:42:06.070Z,54.93
2017-11-09T10:44:33.660Z,56.73
2017-11-09T10:47:02.719Z,55.10
2017-11-09T10:49:30.324Z,54.50
2017-11-09T10:51:58.655Z,53.10
2017-11-09T10:54:26.230Z,54.07
2017-11-09T10:56:53.770Z,56.40
2017-11-09T10:59:21.444Z,55.80
2017-11-09T11:01:48.985Z,53.33
2017-11-09T11:04:16.583Z,51.30
2017-11-09T11:06:44.158Z,55.27
2017-11-09T11:09:11.776Z,52.63
2017-11-09T11:11:39.352Z,51.07
2017-11-09T11:14:06.946Z,53.67
2017-11-09T11:16:34.542Z,50.10
2017-11-09T11:19:02.121Z,53.30
2017-11-09T11:21:29.718Z,52.87
2017-11-09T11:23:57.265Z,53.23
2017-11-09T11:26:24.838Z,48.00
2017-11-09T11:28:53.921Z,47.77
2017-11-09T11:31:21.480Z,54.40
2017-11-09T11:33:49.082Z,53.77
2017-11-09T11:36:17.422Z,52.00
2017-11-09T11:38:44.977Z,47.63
2017-11-09T11:41:12.566Z,48.70
2017-11-09T11:43:40.896Z,50.30
2017-11-09T11:46:08.498Z,49.03
2017-11-09T11:48:36.070Z,49.17
2017-11-09T11:51:04.400Z,50.43
2017-11-09T11:53:31.984Z,48.40
2017-11-09T11:55:59.525Z,51.10
2017-11-09T11:58:27.101Z,46.27
2017-11-09T12:00:54.645Z,46.10
2017-11-09T12:03:22.191Z,48.50
2017-11-09T12:05:49.762Z,48.87
2017-11-09T12:08:17.357Z,48.13
2017-11-09T12:10:44.943Z,49.60
2017-11-09T12:13:12.513Z,40.70
2017-11-09T12:15:40.094Z,43.43
2017-11-09T12:18:07.649Z,39.80
2017-11-09T12:20:35.258Z,41.00
2017-11-09T12:23:02.837Z,42.00
2017-11-09T12:25:31.173Z,39.17
2017-11-09T12:27:58.737Z,41.07
2017-11-09T12:30:26.291Z,43.37
2017-11-09T12:32:54.833Z,39.63
2017-11-09T12:35:22.410Z,43.70
2017-11-09T12:37:49.957Z,43.83
2017-11-09T12:40:17.516Z,41.53
2017-11-09T12:42:45.068Z,40.90
2017-11-09T12:45:12.648Z,39.63
2017-11-09T12:47:40.213Z,40.60
2017-11-09T12:50:07.874Z,40.87
2017-11-09T12:52:35.438Z,44.47
2017-11-09T12:55:03.098Z,39.60
2017-11-09T12:57:30.916Z,41.47
2017-11-09T12:59:59.252Z,39.77
2017-11-09T13:02:26.828Z,40.00
2017-11-09T13:04:54.407Z,37.83
2017-11-09T13:07:22.742Z,40.53
2017-11-09T13:09:50.334Z,41.23
2017-11-09T13:12:17.958Z,41.27
2017-11-09T13:14:45.541Z,42.37
2017-11-09T13:17:13.178Z,39.53
2017-11-09T13:19:40.717Z,38.07
2017-11-09T13:22:08.270Z,40.37
2017-11-09T13:24:35.863Z,37.10
2017-11-09T13:27:03.441Z,37.07
2017-11-09T13:29:31.077Z,37.47
2017-11-09T13:31:58.679Z,37.03
2017-11-09T13:34:27.050Z,38.07
2017-11-09T13:36:54.592Z,36.97
2017-11-09T13:39:22.191Z,34.70
2017-11-09T13:41:50.519Z,35.10
2017-11-09T13:44:18.174Z,35.47
2017-11-09T13:46:45.756Z,34.67
2017-11-09T13:49:13.536Z,36.33
2017-11-09T13:51:41.133Z,37.00
2017-11-09T13:54:08.714Z,36.23
2017-11-09T13:56:36.286Z,33.80
2017-11-09T13:59:03.861Z,36.20
2017-11-09T14:01:32.202Z,36.87
2017-11-09T14:03:59.771Z,36.33
2017-11-09T14:06:27.345Z,36.97
2017-11-09T14:08:54.899Z,37.63
2017-11-09T14:11:22.472Z,37.80
2017-11-09T14:13:50.046Z,34.70
2017-11-09T14:16:17.649Z,35.40
2017-11-09T14:18:45.217Z,37.73
2017-11-09T14:21:12.771Z,34.77
2017-11-09T14:23:40.361Z,35.00
2017-11-09T14:26:08.016Z,35.03
2017-11-09T14:28:37.478Z,36.23
2017-11-09T14:31:05.778Z,35.50
2017-11-09T14:33:33.341Z,37.03
2017-11-09T14:36:00.897Z,37.10
2017-11-09T14:38:31.256Z,36.73
2017-11-09T14:40:58.858Z,39.70
2017-11-09T14:43:27.201Z,36.07
2017-11-09T14:45:54.737Z,39.00
2017-11-09T14:48:22.304Z,36.13
2017-11-09T14:50:49.832Z,38.73
2017-11-09T14:53:17.419Z,38.80
2017-11-09T14:55:44.977Z,39.30
2017-11-09T14:58:12.569Z,37.67
2017-11-09T15:00:40.123Z,39.17
2017-11-09T15:03:07.682Z,39.63
2017-11-09T15:05:35.265Z,39.10
2017-11-09T15:08:03.580Z,40.57
2017-11-09T15:10:31.155Z,39.93
2017-11-09T15:12:58.735Z,42.33
2017-11-09T15:15:26.292Z,41.73
2017-11-09T15:17:53.852Z,39.80
2017-11-09T15:20:21.401Z,41.27
2017-11-09T15:22:49.016Z,41.78
2017-11-09T15:25:16.606Z,41.00
2017-11-09T15:27:44.141Z,37.07
2017-11-09T15:30:11.711Z,38.53
2017-11-09T15:32:39.282Z,40.12
2017-11-09T15:35:06.821Z,42.23
2017-11-09T15:37:34.470Z,38.88
2017-11-09T15:40:02.037Z,40.58
2017-11-09T15:42:29.634Z,40.40
2017-11-09T15:44:57.202Z,38.25
2017-11-09T15:47:24.780Z,39.80
2017-11-09T15:49:52.368Z,38.17
2017-11-09T15:52:19.928Z,40.70
2017-11-09T15:54:47.473Z,37.00
2017-11-09T15:57:15.811Z,38.70
2017-11-09T15:59:43.376Z,40.45
2017-11-09T16:02:10.945Z,38.15
2017-11-09T16:04:40.012Z,39.60
2017-11-09T16:07:22.342Z,38.70
2017-11-09T16:09:49.929Z,38.83
2017-11-09T16:12:18.360Z,39.90
2017-11-09T16:14:45.936Z,38.58
2017-11-09T16:17:13.485Z,37.58
2017-11-09T16:19:41.068Z,34.60
2017-11-09T16:22:08.631Z,38.70
2017-11-09T16:24:36.187Z,35.35
2017-11-09T16:27:03.749Z,39.20
2017-11-09T16:29:32.822Z,37.78
2017-11-09T16:32:00.408Z,36.00
2017-11-09T16:34:27.953Z,41.15
2017-11-09T16:36:55.511Z,41.80
2017-11-09T16:39:23.084Z,41.60
2017-11-09T16:41:50.685Z,34.35
2017-11-09T16:44:18.370Z,39.08
2017-11-09T16:46:45.924Z,43.95
2017-11-09T16:49:13.522Z,39.08
2017-11-09T16:51:41.066Z,38.80
2017-11-09T16:54:08.647Z,43.13
2017-11-09T16:56:37.958Z,39.40
2017-11-09T16:59:06.269Z,35.15
2017-11-09T17:01:33.867Z,38.10
2017-11-09T17:04:01.407Z,40.60
2017-11-09T17:06:28.991Z,44.50
2017-11-09T17:08:56.537Z,45.95
2017-11-09T17:11:24.109Z,39.80
2017-11-09T17:13:51.667Z,35.88
2017-11-09T17:16:19.215Z,37.13
2017-11-09T17:18:46.793Z,38.95
2017-11-09T17:21:14.341Z,34.90
2017-11-09T17:23:42.162Z,35.83
2017-11-09T17:26:09.712Z,38.17
2017-11-09T17:28:37.250Z,36.92
2017-11-09T17:31:05.587Z,37.30
2017-11-09T17:33:33.169Z,39.03
2017-11-09T17:36:00.756Z,39.30
2017-11-09T17:38:29.084Z,38.20
2017-11-09T17:40:56.736Z,38.80
2017-11-09T17:43:27.103Z,37.28
2017-11-09T17:45:54.640Z,36.58
2017-11-09T17:48:22.223Z,38.55
2017-11-09T17:50:50.567Z,39.65
2017-11-09T17:53:27.055Z,38.92
2017-11-09T17:55:54.592Z,39.20
2017-11-09T17:58:22.164Z,39.10
2017-11-09T18:00:49.718Z,38.53
2017-11-09T18:03:17.255Z,37.88
2017-11-09T18:05:44.899Z,40.88
2017-11-09T18:08:12.531Z,40.40
2017-11-09T18:10:40.096Z,39.55
2017-11-09T18:13:08.468Z,40.05
2017-11-09T18:15:36.817Z,39.70
2017-11-09T18:18:04.395Z,39.05
2017-11-09T18:20:31.966Z,39.88
2017-11-09T18:23:02.162Z,37.60
2017-11-09T18:25:29.772Z,42.42
2017-11-09T18:27:57.323Z,38.42
2017-11-09T18:30:24.886Z,41.10
2017-11-09T18:32:52.446Z,40.47
2017-11-09T18:35:20.036Z,40.00
2017-11-09T18:37:47.569Z,41.22
2017-11-09T18:40:15.124Z,37.88
2017-11-09T18:42:43.460Z,41.78
2017-11-09T18:45:11.012Z,40.15
2017-11-09T18:47:38.614Z,39.80
2017-11-09T18:50:06.955Z,38.55
2017-11-09T18:52:34.511Z,37.70
2017-11-09T18:55:02.070Z,40.33
2017-11-09T18:57:29.642Z,41.10
2017-11-09T18:59:59.080Z,39.95
2017-11-09T19:02:26.646Z,38.90
2017-11-09T19:04:54.232Z,40.72
2017-11-09T19:07:21.806Z,40.42
2017-11-09T19:09:49.365Z,38.78
2017-11-09T19:12:16.937Z,41.28
2017-11-09T19:14:44.500Z,40.40
2017-11-09T19:17:12.056Z,39.17
2017-11-09T19:19:39.642Z,38.67
2017-11-09T19:22:07.965Z,40.67
2017-11-09T19:24:35.522Z,40.38
2017-11-09T19:27:03.090Z,38.90
2017-11-09T19:29:30.661Z,41.03
2017-11-09T19:31:58.300Z,39.33
2017-11-09T19:34:25.851Z,39.60
2017-11-09T19:36:53.527Z,38.05
2017-11-09T19:39:21.066Z,41.17
2017-11-09T19:41:48.694Z,44.72
2017-11-09T19:44:17.024Z,38.72
2017-11-09T19:46:44.631Z,38.50
2017-11-09T19:49:12.952Z,40.05
2017-11-09T19:51:40.522Z,39.83
2017-11-09T19:54:08.110Z,37.30
2017-11-09T19:56:35.670Z,39.05
2017-11-09T19:59:03.267Z,38.53
2017-11-09T20:01:30.826Z,38.65
2017-11-09T20:03:58.397Z,39.88
2017-11-09T20:06:25.945Z,36.88
2017-11-09T20:08:53.568Z,38.28
2017-11-09T20:11:21.128Z,35.53
2017-11-09T20:13:48.719Z,38.95
2017-11-09T20:16:16.293Z,39.35
2017-11-09T20:18:43.841Z,34.58
2017-11-09T20:21:11.435Z,37.67
2017-11-09T20:23:39.019Z,36.75
2017-11-09T20:26:06.600Z,37.45
2017-11-09T20:28:34.945Z,38.33
2017-11-09T20:31:02.508Z,39.08
2017-11-09T20:33:33.504Z,33.88
2017-11-09T20:36:01.106Z,36.78
2017-11-09T20:38:28.678Z,35.03
2017-11-09T20:40:56.234Z,35.08
2017-11-09T20:43:23.830Z,36.15
2017-11-09T20:45:51.381Z,33.60
2017-11-09T20:48:19.746Z,31.17
2017-11-09T20:50:47.312Z,32.90
2017-11-09T20:53:15.617Z,33.08
2017-11-09T20:55:43.306Z,32.10
2017-11-09T20:58:10.870Z,33.42
2017-11-09T21:00:38.465Z,32.30
2017-11-09T21:03:06.781Z,34.83
2017-11-09T21:05:34.359Z,31.40
2017-11-09T21:08:01.928Z,30.80
2017-11-09T21:10:29.519Z,29.12
2017-11-09T21:12:57.079Z,30.23
2017-11-09T21:15:24.649Z,31.90
2017-11-09T21:17:52.978Z,31.67
2017-11-09T21:20:20.517Z,33.10
2017-11-09T21:22:48.090Z,31.62
2017-11-09T21:25:15.661Z,33.40
2017-11-09T21:27:43.205Z,29.48
2017-11-09T21:30:10.760Z,29.25
2017-11-09T21:32:38.378Z,30.70
2017-11-09T21:35:06.732Z,30.48
2017-11-09T21:37:34.303Z,29.65
2017-11-09T21:40:01.871Z,29.50
2017-11-09T21:42:30.226Z,31.85
2017-11-09T21:44:57.769Z,32.30
2017-11-09T21:47:25.338Z,30.02
2017-11-09T21:49:52.891Z,33.10
2017-11-09T21:52:20.458Z,32.30
2017-11-09T21:54:48.036Z,36.10
2017-11-09T21:57:15.600Z,29.52
2017-11-09T21:59:43.174Z,35.50
2017-11-09T22:02:11.496Z,33.95
2017-11-09T22:04:39.052Z,33.50
2017-11-09T22:07:06.623Z,32.90
2017-11-09T22:09:34.183Z,32.10
2017-11-09T22:12:01.759Z,32.25
2017-11-09T22:14:29.330Z,34.70
2017-11-09T22:16:56.978Z,31.10
2017-11-09T22:19:24.517Z,34.95
2017-11-09T22:21:52.071Z,35.17
2017-11-09T22:24:19.647Z,33.28
2017-11-09T22:26:47.249Z,32.22
2017-11-09T22:29:15.581Z,30.02
2017-11-09T22:31:43.157Z,35.25
2017-11-09T22:34:10.730Z,32.55
2017-11-09T22:36:38.346Z,31.58
2017-11-09T22:39:05.900Z,31.30
2017-11-09T22:41:33.484Z,31.37
2017-11-09T22:44:01.044Z,32.35
2017-11-09T22:46:28.608Z,33.78
2017-11-09T22:48:56.198Z,30.80
2017-11-09T22:51:24.520Z,30.98
2017-11-09T22:53:52.112Z,31.17
2017-11-09T22:56:19.686Z,30.65
2017-11-09T22:58:48.011Z,31.50
2017-11-09T23:01:15.685Z,29.80
2017-11-09T23:03:43.278Z,29.30
2017-11-09T23:06:10.869Z,29.20
2017-11-09T23:08:38.431Z,30.73
2017-11-09T23:11:06.002Z,28.55
2017-11-09T23:13:33.561Z,28.98
2017-11-09T23:16:01.119Z,29.30
2017-11-09T23:18:28.691Z,27.98
2017-11-09T23:20:56.233Z,27.98
2017-11-09T23:23:23.785Z,28.12
2017-11-09T23:25:52.100Z,27.80
2017-11-09T23:28:19.697Z,28.25
2017-11-09T23:30:47.269Z,28.65
2017-11-09T23:33:15.592Z,29.80
2017-11-09T23:35:43.182Z,29.12
2017-11-09T23:38:10.743Z,28.02
2017-11-09T23:40:38.324Z,33.25
2017-11-09T23:43:06.678Z,32.28
2017-11-09T23:45:34.257Z,31.35
2017-11-09T23:48:02.585Z,34.38
2017-11-09T23:50:30.158Z,36.88
2017-11-09T23:52:57.740Z,37.15
2017-11-09T23:55:25.277Z,37.92
2017-11-09T23:57:52.818Z,36.75
